createdAt,value
2023-01-30T00:00:47.254Z,0.37
2023-01-30T00:06:01.248Z,0.36
2023-01-30T00:11:13.162Z,0.38
2023-01-30T00:16:20.143Z,0.39
2023-01-30T00:21:27.291Z,0.39
2023-01-30T00:26:35.444Z,0.41
2023-01-30T00:31:42.059Z,0.39
2023-01-30T00:37:02.447Z,0.40
2023-01-30T00:42:28.830Z,0.39
2023-01-30T00:47:35.695Z,0.39
2023-01-30T00:52:42.236Z,0.40
2023-01-30T00:57:50.711Z,0.40
2023-01-30T01:02:59.223Z,0.41
2023-01-30T01:08:06.527Z,0.40
2023-01-30T01:13:14.628Z,0.41
2023-01-30T01:18:21.211Z,0.41
2023-01-30T01:23:27.628Z,0.43
2023-01-30T01:28:38.208Z,0.45
2023-01-30T01:33:44.899Z,0.45
2023-01-30T01:38:51.428Z,0.45
2023-01-30T01:44:08.753Z,0.44
2023-01-30T01:49:22.713Z,0.44
2023-01-30T01:54:35.847Z,0.44
2023-01-30T01:59:48.343Z,0.42
2023-01-30T02:05:07.125Z,0.42
2023-01-30T02:10:20.333Z,0.43
2023-01-30T02:15:28.839Z,0.43
2023-01-30T02:20:57.517Z,0.43
2023-01-30T02:26:55.609Z,0.41
2023-01-30T02:32:13.465Z,0.41
2023-01-30T02:37:39.807Z,0.41
2023-01-30T02:42:54.119Z,0.42
2023-01-30T02:48:08.132Z,0.42
2023-01-30T02:53:14.990Z,0.40
2023-01-30T02:58:26.017Z,0.41
2023-01-30T03:04:11.106Z,0.43
2023-01-30T03:09:29.125Z,0.41
2023-01-30T03:14:46.372Z,0.41
2023-01-30T03:19:56.784Z,0.40
2023-01-30T03:25:03.811Z,0.40
2023-01-30T03:30:12.778Z,0.39
2023-01-30T03:35:21.987Z,0.36
2023-01-30T03:40:30.652Z,0.38
2023-01-30T03:45:38.423Z,0.38
2023-01-30T03:50:46.428Z,0.36
2023-01-30T03:55:52.855Z,0.35
2023-01-30T04:01:05.146Z,0.33
2023-01-30T04:06:14.881Z,0.33
2023-01-30T04:11:22.244Z,0.35
2023-01-30T04:16:29.317Z,0.33
2023-01-30T04:21:57.493Z,0.33
2023-01-30T04:27:05.704Z,0.34
2023-01-30T04:32:17.791Z,0.32
2023-01-30T04:37:26.933Z,0.33
2023-01-30T04:42:33.658Z,0.32
2023-01-30T04:47:58.432Z,0.33
2023-01-30T04:53:06.933Z,0.31
2023-01-30T04:58:13.748Z,0.31
2023-01-30T05:03:20.590Z,0.32
2023-01-30T05:08:28.404Z,0.31
2023-01-30T05:13:34.888Z,0.31
2023-01-30T05:18:41.411Z,0.31
2023-01-30T05:23:49.499Z,0.30
2023-01-30T05:28:58.194Z,0.31
2023-01-30T05:34:04.578Z,0.30
2023-01-30T05:39:12.944Z,0.28
2023-01-30T05:44:19.596Z,0.27
2023-01-30T05:49:26.448Z,0.27
2023-01-30T05:54:35.991Z,0.28
2023-01-30T05:59:42.816Z,0.29
2023-01-30T06:04:49.883Z,0.27
2023-01-30T06:09:58.007Z,0.27
2023-01-30T06:15:04.722Z,0.26
2023-01-30T06:20:13.748Z,0.23
2023-01-30T06:25:21.813Z,0.26
2023-01-30T06:30:28.615Z,0.28
2023-01-30T06:35:35.880Z,0.26
2023-01-30T06:40:47.111Z,0.23
2023-01-30T06:45:54.731Z,0.23
2023-01-30T06:51:01.222Z,0.23
2023-01-30T06:56:09.722Z,0.23
2023-01-30T07:01:17.321Z,0.21
2023-01-30T07:06:23.824Z,0.19
2023-01-30T07:11:32.854Z,0.19
2023-01-30T07:16:38.878Z,0.18
2023-01-30T07:21:45.234Z,0.11
2023-01-30T07:26:54.271Z,0.12
2023-01-30T07:32:01.037Z,0.08
2023-01-30T07:37:07.651Z,0.09
2023-01-30T07:42:16.717Z,0.10
2023-01-30T07:47:22.735Z,0.07
2023-01-30T07:52:29.164Z,0.06
2023-01-30T07:57:37.111Z,0.08
2023-01-30T08:02:43.776Z,0.07
2023-01-30T08:07:50.358Z,0.06
2023-01-30T08:12:58.293Z,0.00
2023-01-30T08:18:04.790Z,0.03
2023-01-30T08:23:12.237Z,0.02
2023-01-30T08:28:20.216Z,0.05
2023-01-30T08:33:27.493Z,0.06
2023-01-30T08:38:35.012Z,0.07
2023-01-30T08:43:42.896Z,0.07
2023-01-30T08:48:50.473Z,0.08
2023-01-30T08:53:57.039Z,0.12
2023-01-30T08:59:05.317Z,0.13
2023-01-30T09:04:12.055Z,0.16
2023-01-30T09:09:18.629Z,0.16
2023-01-30T09:14:26.835Z,0.14
2023-01-30T09:19:33.335Z,0.18
2023-01-30T09:24:39.942Z,0.16
2023-01-30T09:29:47.947Z,0.16
2023-01-30T09:34:54.320Z,0.16
2023-01-30T09:40:00.850Z,0.17
2023-01-30T09:45:55.597Z,0.17
2023-01-30T09:51:27.708Z,0.16
2023-01-30T09:56:34.505Z,0.17
2023-01-30T10:01:53.242Z,0.18
2023-01-30T10:07:06.614Z,0.18
2023-01-30T10:12:37.610Z,0.19
2023-01-30T10:18:04.635Z,0.20
2023-01-30T10:23:47.926Z,0.24
2023-01-30T10:29:07.822Z,0.24
2023-01-30T10:34:21.061Z,0.24
2023-01-30T10:39:49.682Z,0.26
2023-01-30T10:45:13.995Z,0.29
2023-01-30T10:50:28.804Z,0.31
2023-01-30T10:55:41.518Z,0.32
2023-01-30T11:00:56.445Z,0.38
2023-01-30T11:06:10.205Z,0.43
2023-01-30T11:11:31.362Z,0.47
2023-01-30T11:16:46.195Z,0.52
2023-01-30T11:21:56.717Z,0.51
2023-01-30T11:27:18.079Z,0.48
2023-01-30T11:32:29.968Z,0.49
2023-01-30T11:37:40.147Z,0.52
2023-01-30T11:42:47.876Z,0.54
2023-01-30T11:48:05.049Z,0.52
2023-01-30T11:53:39.005Z,0.51
2023-01-30T11:58:49.053Z,0.51
2023-01-30T12:03:58.436Z,0.49
2023-01-30T12:09:09.626Z,0.52
2023-01-30T12:14:28.964Z,0.53
2023-01-30T12:19:54.457Z,0.56
2023-01-30T12:25:05.598Z,0.56
2023-01-30T12:30:26.236Z,0.57
2023-01-30T12:35:51.195Z,0.58
2023-01-30T12:41:14.104Z,0.57
2023-01-30T12:46:41.797Z,0.58
2023-01-30T12:52:09.781Z,0.57
2023-01-30T12:57:28.074Z,0.60
2023-01-30T13:02:56.364Z,0.62
2023-01-30T13:08:23.510Z,0.64
2023-01-30T13:13:43.291Z,0.65
2023-01-30T13:18:56.910Z,0.66
2023-01-30T13:24:20.816Z,0.68
2023-01-30T13:29:34.870Z,0.69
2023-01-30T13:34:44.825Z,0.72
2023-01-30T13:39:56.550Z,0.73
2023-01-30T13:45:06.693Z,0.76
2023-01-30T13:50:43.540Z,0.75
2023-01-30T13:55:58.671Z,0.74
2023-01-30T14:01:07.925Z,0.75
2023-01-30T14:06:38.852Z,0.78
2023-01-30T14:11:51.297Z,0.78
2023-01-30T14:17:12.999Z,0.80
2023-01-30T14:22:28.409Z,0.81
2023-01-30T14:27:34.920Z,0.80
2023-01-30T14:32:57.307Z,0.81
2023-01-30T14:38:21.723Z,0.83
2023-01-30T14:43:40.587Z,0.83
2023-01-30T14:48:53.751Z,0.84
2023-01-30T14:54:03.506Z,0.83
2023-01-30T14:59:22.086Z,0.85
2023-01-30T15:04:35.457Z,0.84
2023-01-30T15:09:47.374Z,0.85
2023-01-30T15:15:09.252Z,0.85
2023-01-30T15:20:43.376Z,0.86
2023-01-30T15:26:18.770Z,0.87
2023-01-30T15:31:26.772Z,0.86
2023-01-30T15:36:37.541Z,0.88
2023-01-30T15:41:44.645Z,0.88
2023-01-30T15:47:01.420Z,0.89
2023-01-30T15:52:17.079Z,0.91
2023-01-30T15:57:29.627Z,0.91
2023-01-30T16:02:38.269Z,0.90
2023-01-30T16:07:49.036Z,0.93
2023-01-30T16:12:58.562Z,0.93
2023-01-30T16:18:15.090Z,0.92
2023-01-30T16:23:30.562Z,0.96
2023-01-30T16:28:38.405Z,0.94
2023-01-30T16:33:51.599Z,0.95
2023-01-30T16:39:01.420Z,0.96
2023-01-30T16:44:21.277Z,0.98
2023-01-30T16:49:46.816Z,0.99
2023-01-30T16:55:00.586Z,0.99
2023-01-30T17:00:22.535Z,0.99
2023-01-30T17:05:32.925Z,1.02
2023-01-30T17:11:00.825Z,1.03
2023-01-30T17:16:35.820Z,1.02
2023-01-30T17:21:50.509Z,1.02
2023-01-30T17:27:07.899Z,1.05
2023-01-30T17:32:18.017Z,1.07
2023-01-30T17:37:26.802Z,1.06
2023-01-30T17:42:35.996Z,1.07
2023-01-30T17:47:43.982Z,1.08
2023-01-30T17:52:52.309Z,1.10
2023-01-30T17:58:01.245Z,1.08
2023-01-30T18:03:09.154Z,1.11
2023-01-30T18:08:18.355Z,1.11
2023-01-30T18:13:27.751Z,1.11
2023-01-30T18:18:36.939Z,1.11
2023-01-30T18:23:45.412Z,1.12
2023-01-30T18:28:56.402Z,1.14
2023-01-30T18:34:05.710Z,1.12
2023-01-30T18:39:15.453Z,1.11
2023-01-30T18:44:26.067Z,1.11
2023-01-30T18:49:34.474Z,1.12
2023-01-30T18:54:44.111Z,1.14
2023-01-30T18:59:53.086Z,1.13
2023-01-30T19:05:02.524Z,1.14
2023-01-30T19:10:17.997Z,1.15
2023-01-30T19:15:32.022Z,1.17
2023-01-30T19:20:41.040Z,1.18
2023-01-30T19:26:01.319Z,1.19
2023-01-30T19:31:14.452Z,1.17
2023-01-30T19:36:25.851Z,1.16
2023-01-30T19:41:53.100Z,1.15
2023-01-30T19:47:07.541Z,1.17
2023-01-30T19:52:17.984Z,1.14
2023-01-30T19:57:28.083Z,1.15
2023-01-30T20:02:39.238Z,1.16
2023-01-30T20:07:49.863Z,1.15
2023-01-30T20:12:59.313Z,1.16
2023-01-30T20:18:10.281Z,1.15
2023-01-30T20:23:20.072Z,1.13
2023-01-30T20:28:28.677Z,1.13
2023-01-30T20:33:39.749Z,1.14
2023-01-30T20:38:50.597Z,1.14
2023-01-30T20:44:01.632Z,1.19
2023-01-30T20:49:17.526Z,1.20
2023-01-30T20:54:29.103Z,1.23
2023-01-30T20:59:38.350Z,1.23
2023-01-30T21:04:49.158Z,1.22
2023-01-30T21:09:57.711Z,1.19
2023-01-30T21:15:09.484Z,1.20
2023-01-30T21:20:19.511Z,1.22
2023-01-30T21:25:27.129Z,1.22
2023-01-30T21:30:33.896Z,1.22
2023-01-30T21:35:45.757Z,1.20
2023-01-30T21:41:11.550Z,1.23
2023-01-30T21:46:18.860Z,1.22
2023-01-30T21:51:27.569Z,1.23
2023-01-30T21:56:35.133Z,1.23
2023-01-30T22:01:42.868Z,1.22
2023-01-30T22:06:50.950Z,1.23
2023-01-30T22:11:57.472Z,1.23
2023-01-30T22:17:03.959Z,1.22
2023-01-30T22:22:11.803Z,1.21
2023-01-30T22:27:18.315Z,1.23
2023-01-30T22:32:24.987Z,1.23
2023-01-30T22:37:33.071Z,1.26
2023-01-30T22:42:39.660Z,1.27
2023-01-30T22:47:46.257Z,1.26
2023-01-30T22:52:55.953Z,1.27
2023-01-30T22:58:02.360Z,1.28
2023-01-30T23:03:08.807Z,1.29
2023-01-30T23:08:16.731Z,1.30
2023-01-30T23:13:23.104Z,1.33
2023-01-30T23:18:46.455Z,1.34
2023-01-30T23:23:57.379Z,1.34
2023-01-30T23:29:05.072Z,1.35
2023-01-30T23:34:16.818Z,1.35
2023-01-30T23:39:24.730Z,1.35
2023-01-30T23:44:31.213Z,1.37
2023-01-30T23:49:37.841Z,1.37
2023-01-30T23:54:46.224Z,1.37
2023-01-30T23:59:52.412Z,1.37
